Time;durP1;ratioP1;P1;durP2;ratioP2;P2;SDS_P1;SDS_P2;PMS_P1;PMS_P2;Temp;Humidity;BMP_temperature;BMP_pressure;BME280_temperature;BME280_humidity;BME280_pressure;Samples;Min_cycle;Max_cycle;Signal;HPM_P1;HPM_P2
2023/09/04 00:02:01;;;;;;;10.48;7.93;;;;;;;15.47;86.35;102689.25;5035527;28;20116;-66
2023/09/04 00:04:27;;;;;;;9.73;7.70;;;;;;;15.48;86.40;102684.72;5040329;28;20036;-66
2023/09/04 00:06:52;;;;;;;9.18;7.65;;;;;;;15.46;86.86;102692.09;5035019;28;20025;-66
2023/09/04 00:09:18;;;;;;;9.05;8.13;;;;;;;15.46;86.90;102681.38;5034737;28;20094;-66
2023/09/04 00:11:43;;;;;;;9.82;7.18;;;;;;;15.29;86.58;102680.41;5033902;28;20067;-66
2023/09/04 00:14:08;;;;;;;8.77;7.75;;;;;;;15.24;86.91;102676.53;5033536;28;20506;-66
2023/09/04 00:16:33;;;;;;;8.98;7.25;;;;;;;15.27;86.76;102673.53;5038668;28;20074;-66
2023/09/04 00:18:59;;;;;;;8.60;7.20;;;;;;;15.29;87.06;102674.22;5034584;28;20150;-67
2023/09/04 00:21:25;;;;;;;8.88;7.15;;;;;;;15.28;87.32;102675.22;5034599;28;20030;-67
2023/09/04 00:23:50;;;;;;;8.88;7.80;;;;;;;15.23;87.09;102685.56;5030574;28;20030;-67
2023/09/04 00:26:15;;;;;;;9.27;7.32;;;;;;;15.18;87.42;102680.69;5037696;28;20031;-66
2023/09/04 00:28:40;;;;;;;7.40;5.22;;;;;;;15.01;86.97;102671.66;5032862;28;20017;-66
2023/09/04 00:31:06;;;;;;;4.90;4.47;;;;;;;14.90;86.80;102674.59;5042603;28;20056;-67
2023/09/04 00:33:31;;;;;;;6.63;5.00;;;;;;;14.83;86.63;102678.88;5033535;28;20036;-66
2023/09/04 00:35:56;;;;;;;6.78;5.85;;;;;;;14.79;87.25;102680.19;5037337;28;20108;-66
2023/09/04 00:38:22;;;;;;;7.55;6.82;;;;;;;14.70;87.38;102675.72;5038689;28;20041;-66
2023/09/04 00:40:47;;;;;;;5.25;4.75;;;;;;;14.64;87.33;102682.53;5038868;28;20661;-66
2023/09/04 00:43:12;;;;;;;3.78;3.38;;;;;;;14.49;87.33;102686.75;5037361;28;20017;-67
2023/09/04 00:45:37;;;;;;;4.70;3.03;;;;;;;14.38;87.38;102678.88;5039978;28;20053;-67
2023/09/04 00:48:04;;;;;;;3.50;3.20;;;;;;;14.30;87.85;102682.31;5036302;28;20031;-66
2023/09/04 00:50:29;;;;;;;3.60;3.30;;;;;;;14.37;88.11;102677.22;5035260;28;20083;-66
2023/09/04 00:53:02;;;;;;;4.40;4.00;;;;;;;14.41;88.79;102684.78;5031010;28;20445;-66
2023/09/04 00:55:27;;;;;;;4.28;3.70;;;;;;;14.28;87.84;102676.28;5029433;28;20075;-66
2023/09/04 00:57:52;;;;;;;4.03;3.63;;;;;;;14.21;88.04;102675.22;5033648;28;20025;-66
2023/09/04 01:00:22;;;;;;;7.03;4.85;;;;;;;14.25;88.03;102680.09;5038957;28;20113;-66
2023/09/04 01:02:47;;;;;;;;;;;;;;;14.42;88.28;102674.91;5039459;28;20024;-66
2023/09/04 01:05:12;;;;;;;7.85;6.40;;;;;;;14.34;88.53;102681.03;5035382;28;20003;-66
2023/09/04 01:07:40;;;;;;;12.20;7.60;;;;;;;14.34;89.25;102689.03;5034356;28;20441;-66
2023/09/04 01:10:11;;;;;;;8.40;7.60;;;;;;;14.35;89.78;102687.22;5033654;28;20426;-66
2023/09/04 01:12:51;;;;;;;7.93;7.10;;;;;;;14.37;90.17;102687.91;5035372;28;20466;-66
2023/09/04 01:15:17;;;;;;;8.40;7.15;;;;;;;14.40;89.98;102679.56;5031974;28;20496;-66
2023/09/04 01:17:43;;;;;;;8.98;7.38;;;;;;;14.46;90.41;102677.19;5034469;28;20021;-66
2023/09/04 01:20:28;;;;;;;8.95;7.93;;;;;;;14.45;90.10;102680.00;5029167;28;20596;-66
2023/09/04 01:22:55;;;;;;;8.80;7.45;;;;;;;14.40;90.04;102683.09;5029382;28;20017;-66
2023/09/04 01:25:22;;;;;;;9.98;7.80;;;;;;;14.39;90.18;102685.91;5036091;28;20794;-66
2023/09/04 01:27:57;;;;;;;8.23;7.43;;;;;;;14.38;90.41;102685.06;5032884;28;20087;-66
2023/09/04 01:30:38;;;;;;;9.90;8.05;;;;;;;14.39;90.64;102686.75;5040353;28;20161;-66
2023/09/04 01:33:09;;;;;;;11.82;7.63;;;;;;;14.32;90.70;102675.00;5035994;28;20120;-66
2023/09/04 01:35:36;;;;;;;10.15;8.10;;;;;;;14.33;90.75;102668.66;5038982;28;20043;-67
2023/09/04 01:38:02;;;;;;;8.88;8.00;;;;;;;14.35;90.99;102666.66;5040228;28;20090;-66
2023/09/04 01:40:28;;;;;;;8.93;7.15;;;;;;;14.34;91.11;102673.00;5037935;28;20149;-66
2023/09/04 01:42:53;;;;;;;8.95;8.05;;;;;;;14.37;91.40;102664.69;5028548;28;20112;-66
2023/09/04 01:45:18;;;;;;;8.00;7.10;;;;;;;14.27;91.08;102662.09;5041325;28;20061;-66
2023/09/04 01:47:46;;;;;;;7.93;7.00;;;;;;;14.17;90.82;102666.66;5033657;28;20494;-66
2023/09/04 01:50:11;;;;;;;5.80;5.22;;;;;;;14.01;90.16;102657.59;5036086;28;20048;-66
2023/09/04 01:52:37;;;;;;;5.70;5.10;;;;;;;13.86;89.86;102657.22;5039146;28;20059;-66
2023/09/04 01:55:02;;;;;;;6.05;5.45;;;;;;;13.79;90.28;102662.31;5041740;28;20028;-66
2023/09/04 01:57:27;;;;;;;8.27;7.47;;;;;;;13.85;91.09;102666.22;5039787;28;20029;-66
2023/09/04 01:59:53;;;;;;;9.02;8.02;;;;;;;13.86;91.21;102665.25;5033291;28;20041;-66
2023/09/04 02:02:18;;;;;;;11.13;7.72;;;;;;;13.90;91.45;102664.81;5038596;28;20502;-66
2023/09/04 02:04:43;;;;;;;8.55;7.68;;;;;;;13.94;91.50;102662.69;5041590;28;20068;-66
2023/09/04 02:07:08;;;;;;;9.80;8.10;;;;;;;13.94;91.90;102663.53;5033578;28;20032;-67
2023/09/04 02:09:33;;;;;;;8.93;7.93;;;;;;;13.98;91.82;102657.91;5035966;28;20070;-66
2023/09/04 02:11:59;;;;;;;8.27;7.30;;;;;;;14.02;91.76;102661.94;5036772;28;20025;-67
2023/09/04 02:14:24;;;;;;;12.60;7.60;;;;;;;13.98;91.59;102658.72;5034022;28;20037;-67
2023/09/04 02:16:49;;;;;;;9.93;7.60;;;;;;;13.98;91.75;102655.22;5044126;28;20082;-67
2023/09/04 02:19:14;;;;;;;7.65;6.32;;;;;;;13.88;91.47;102657.94;5037041;28;20030;-67
2023/09/04 02:21:40;;;;;;;8.40;6.90;;;;;;;13.80;91.38;102647.97;5040478;28;20025;-67
2023/09/04 02:24:05;;;;;;;7.95;7.15;;;;;;;13.77;91.31;102642.09;5038082;28;20030;-66
2023/09/04 02:26:31;;;;;;;7.25;6.55;;;;;;;13.73;91.01;102636.22;5037372;28;20502;-67
2023/09/04 02:28:56;;;;;;;8.55;7.60;;;;;;;13.76;91.26;102640.41;5036169;28;20506;-66
2023/09/04 02:31:22;;;;;;;10.80;7.60;;;;;;;13.75;91.78;102644.91;5043823;28;20507;-67
2023/09/04 02:33:47;;;;;;;6.50;5.90;;;;;;;13.77;91.44;102642.09;5033040;28;20024;-67
2023/09/04 02:36:12;;;;;;;8.00;7.20;;;;;;;13.75;91.55;102638.72;5036940;28;20075;-67
2023/09/04 02:38:38;;;;;;;7.45;6.70;;;;;;;13.78;91.66;102641.09;5041796;28;20658;-66
2023/09/04 02:41:03;;;;;;;7.72;6.63;;;;;;;13.78;91.58;102639.28;5037212;28;20032;-66
2023/09/04 02:43:28;;;;;;;8.13;6.60;;;;;;;13.74;91.83;102637.06;5034375;28;20030;-66
2023/09/04 02:45:53;;;;;;;9.05;7.15;;;;;;;13.73;91.68;102636.22;5043631;28;20021;-67
2023/09/04 02:48:19;;;;;;;8.60;7.72;;;;;;;13.79;92.09;102638.28;5037717;28;20033;-67
2023/09/04 02:50:44;;;;;;;8.93;7.95;;;;;;;13.81;92.21;102630.13;5041881;28;20059;-67
2023/09/04 02:53:09;;;;;;;8.68;7.80;;;;;;;13.81;92.11;102638.97;5040074;28;20029;-66
2023/09/04 02:55:35;;;;;;;9.85;7.50;;;;;;;13.76;92.03;102629.72;5034958;28;20017;-66
2023/09/04 02:58:00;;;;;;;8.60;7.80;;;;;;;13.72;92.05;102634.53;5032753;28;20032;-66
2023/09/04 03:00:25;;;;;;;11.52;8.52;;;;;;;13.67;91.80;102631.47;5036026;28;20475;-67
2023/09/04 03:02:50;;;;;;;9.60;8.63;;;;;;;13.67;92.10;102635.97;5035695;28;20053;-66
2023/09/04 03:05:16;;;;;;;11.02;8.45;;;;;;;13.66;91.88;102632.47;5030703;28;20025;-67
2023/09/04 03:07:41;;;;;;;10.65;8.75;;;;;;;13.63;91.91;102636.25;5042779;28;20026;-66
2023/09/04 03:10:07;;;;;;;11.23;9.18;;;;;;;13.62;92.11;102636.41;5030038;28;20061;-66
2023/09/04 03:12:33;;;;;;;10.30;9.25;;;;;;;13.58;92.40;102633.16;5035850;28;20104;-67
2023/09/04 03:15:06;;;;;;;11.80;9.43;;;;;;;13.60;92.12;102630.38;5031690;28;20109;-66
2023/09/04 03:17:33;;;;;;;12.32;9.10;;;;;;;13.54;92.24;102626.44;5041265;28;20047;-66
2023/09/04 03:19:59;;;;;;;11.95;9.48;;;;;;;13.56;92.24;102615.63;5030054;28;20060;-66
2023/09/04 03:22:25;;;;;;;12.63;9.43;;;;;;;13.53;92.31;102610.56;5030048;28;20418;-66
2023/09/04 03:24:51;;;;;;;11.80;9.70;;;;;;;13.51;92.39;102607.22;5031232;28;20021;-66
2023/09/04 03:27:17;;;;;;;11.90;10.00;;;;;;;13.48;92.22;102603.00;5029913;28;20021;-66
2023/09/04 03:29:43;;;;;;;11.43;10.23;;;;;;;13.48;92.29;102603.00;5029937;28;20641;-66
2023/09/04 03:32:08;;;;;;;12.95;9.60;;;;;;;13.45;92.24;102599.81;5030886;28;20697;-66
2023/09/04 03:34:33;;;;;;;12.18;10.43;;;;;;;13.45;92.44;102600.63;5033840;28;20037;-66
2023/09/04 03:36:59;;;;;;;13.00;11.07;;;;;;;13.45;92.70;102594.47;5032553;28;20021;-67
2023/09/04 03:39:24;;;;;;;14.45;11.32;;;;;;;13.44;92.67;102593.63;5034442;28;20498;-67
2023/09/04 03:41:50;;;;;;;14.23;10.90;;;;;;;13.45;92.98;102607.81;5033969;28;20075;-67
2023/09/04 03:44:15;;;;;;;15.00;11.43;;;;;;;13.47;93.07;102597.81;5037163;28;20091;-66
2023/09/04 03:46:41;;;;;;;14.30;12.68;;;;;;;13.49;93.12;102609.19;5033234;28;20060;-66
2023/09/04 03:49:06;;;;;;;13.55;12.02;;;;;;;13.47;93.17;102600.50;5034793;28;20017;-67
2023/09/04 03:51:32;;;;;;;13.35;11.80;;;;;;;13.50;93.22;102598.38;5034237;28;20091;-66
2023/09/04 03:54:01;;;;;;;15.18;12.80;;;;;;;13.52;93.27;102598.22;5034798;28;20079;-66
2023/09/04 03:56:27;;;;;;;16.13;12.75;;;;;;;13.55;93.52;102596.09;5031059;28;20549;-66
2023/09/04 03:58:52;;;;;;;16.75;13.75;;;;;;;13.58;93.62;102587.78;5028849;28;20021;-66
2023/09/04 04:01:17;;;;;;;14.55;12.57;;;;;;;13.59;93.69;102588.66;5033124;28;20090;-66
2023/09/04 04:03:43;;;;;;;15.02;13.10;;;;;;;13.59;93.66;102577.97;5047861;28;20048;-66
2023/09/04 04:06:13;;;;;;;16.38;13.38;;;;;;;13.58;93.88;102584.28;5040924;28;20029;-66
2023/09/04 04:08:38;;;;;;;16.90;13.07;;;;;;;13.59;93.69;102584.16;5037779;28;20021;-66
2023/09/04 04:11:04;;;;;;;15.45;13.77;;;;;;;13.59;93.78;102583.31;5035053;28;20098;-66
2023/09/04 04:13:29;;;;;;;16.40;13.80;;;;;;;13.59;94.21;102580.66;5034508;28;20021;-67
2023/09/04 04:15:57;;;;;;;17.15;14.00;;;;;;;13.60;94.19;102579.66;5033004;28;20021;-67
2023/09/04 04:18:22;;;;;;;15.55;13.95;;;;;;;13.58;93.97;102574.44;5036117;28;20029;-67
2023/09/04 04:20:47;;;;;;;20.17;14.98;;;;;;;13.62;94.23;102583.03;5033696;28;20482;-66
2023/09/04 04:23:13;;;;;;;15.73;14.07;;;;;;;13.63;94.10;102582.03;5032945;28;20021;-67
2023/09/04 04:25:40;;;;;;;15.80;14.20;;;;;;;13.63;94.42;102582.88;5030341;28;20076;-66
2023/09/04 04:28:05;;;;;;;16.17;14.48;;;;;;;13.64;94.66;102591.72;5030907;28;20033;-66
2023/09/04 04:30:31;;;;;;;16.35;14.45;;;;;;;13.66;94.73;102586.22;5033781;28;20127;-66
2023/09/04 04:32:56;;;;;;;17.85;14.38;;;;;;;13.58;94.07;102585.13;5034671;28;20036;-67
2023/09/04 04:35:22;;;;;;;15.82;13.77;;;;;;;13.54;93.94;102589.06;5032037;28;20108;-67
2023/09/04 04:37:47;;;;;;;16.58;13.38;;;;;;;13.49;94.12;102585.16;5034935;28;20025;-66
2023/09/04 04:40:19;;;;;;;17.05;14.00;;;;;;;13.48;93.83;102584.31;5032471;28;20025;-67
2023/09/04 04:42:45;;;;;;;17.63;14.02;;;;;;;13.48;94.01;102594.16;5031691;28;20033;-66
2023/09/04 04:45:10;;;;;;;18.50;14.57;;;;;;;13.44;93.84;102593.63;5031853;28;20022;-67
2023/09/04 04:47:35;;;;;;;17.73;14.30;;;;;;;13.47;94.19;102598.66;5033949;28;20104;-66
2023/09/04 04:50:01;;;;;;;16.02;13.60;;;;;;;13.46;93.92;102593.47;5029843;28;20044;-67
2023/09/04 04:52:26;;;;;;;16.45;13.35;;;;;;;13.45;93.73;102594.47;5037075;28;20138;-67
2023/09/04 04:54:51;;;;;;;16.35;13.60;;;;;;;13.38;93.38;102583.53;5036756;28;20112;-66
2023/09/04 04:57:17;;;;;;;14.95;13.02;;;;;;;13.32;93.76;102590.31;5028660;28;20415;-66
2023/09/04 04:59:42;;;;;;;15.82;12.73;;;;;;;13.34;93.36;102587.50;5033600;28;20026;-66
2023/09/04 05:02:09;;;;;;;17.67;13.57;;;;;;;13.30;93.61;102588.78;5032244;28;20036;-66
2023/09/04 05:04:35;;;;;;;15.00;13.25;;;;;;;13.29;93.82;102584.38;5036104;28;20029;-66
2023/09/04 05:07:01;;;;;;;16.30;13.38;;;;;;;13.27;93.76;102581.88;5030621;28;20136;-66
2023/09/04 05:09:26;;;;;;;18.08;13.20;;;;;;;13.26;93.58;102576.69;5031624;28;20680;-66
2023/09/04 05:11:51;;;;;;;16.38;13.80;;;;;;;13.28;93.94;102580.03;5038895;28;20536;-66
2023/09/04 05:14:16;;;;;;;17.92;14.75;;;;;;;13.28;94.09;102583.56;5028708;28;20026;-66
2023/09/04 05:16:41;;;;;;;16.05;13.88;;;;;;;13.31;94.09;102585.97;5036377;28;20017;-66
2023/09/04 05:19:07;;;;;;;17.10;14.82;;;;;;;13.37;94.42;102583.69;5030143;28;20056;-66
2023/09/04 05:21:32;;;;;;;16.58;13.35;;;;;;;13.37;94.29;102581.03;5034002;28;20029;-67
2023/09/04 05:23:57;;;;;;;17.70;15.07;;;;;;;13.37;94.56;102579.19;5036630;28;20029;-66
2023/09/04 05:26:23;;;;;;;17.70;14.82;;;;;;;13.36;94.66;102582.84;5035781;28;20041;-66
2023/09/04 05:28:48;;;;;;;20.10;15.77;;;;;;;13.42;94.75;102578.75;5041916;28;20509;-66
2023/09/04 05:31:13;;;;;;;19.48;15.18;;;;;;;13.51;95.20;102585.84;5035272;28;20021;-66
2023/09/04 05:33:38;;;;;;;18.10;14.43;;;;;;;13.45;94.97;102583.78;5032576;28;20049;-66
2023/09/04 05:36:04;;;;;;;17.50;15.13;;;;;;;13.59;95.11;102581.50;5032333;28;20021;-67
2023/09/04 05:38:29;;;;;;;19.65;14.63;;;;;;;13.70;95.39;102590.28;5042246;28;20045;-67
2023/09/04 05:40:55;;;;;;;18.58;14.80;;;;;;;13.73;95.77;102590.81;5038573;28;20609;-66
2023/09/04 05:43:21;;;;;;;20.58;16.05;;;;;;;13.78;95.68;102580.53;5037073;28;20053;-66
2023/09/04 05:45:46;;;;;;;20.67;18.55;;;;;;;13.80;95.64;102580.38;5038350;28;20025;-66
2023/09/04 05:48:12;;;;;;;20.23;16.52;;;;;;;13.91;95.71;102596.22;5038216;28;20037;-67
2023/09/04 05:50:37;;;;;;;20.98;16.38;;;;;;;13.97;95.91;102597.44;5041133;28;20068;-66
2023/09/04 05:53:02;;;;;;;19.55;16.00;;;;;;;14.04;96.10;102590.50;5037090;28;20415;-66
2023/09/04 05:55:28;;;;;;;17.95;15.73;;;;;;;14.08;95.81;102589.22;5038989;28;20067;-67
2023/09/04 05:57:53;;;;;;;19.00;15.20;;;;;;;14.18;96.37;102598.03;5034886;28;20471;-67
2023/09/04 06:00:21;;;;;;;20.35;15.93;;;;;;;14.29;96.33;102604.97;5036115;28;20025;-67
2023/09/04 06:02:46;;;;;;;21.73;16.90;;;;;;;14.35;96.57;102599.84;5041725;28;20033;-67
2023/09/04 06:05:12;;;;;;;21.35;17.90;;;;;;;14.37;96.24;102600.53;5037112;28;20025;-67
2023/09/04 06:07:37;;;;;;;21.60;16.60;;;;;;;14.42;96.10;102597.41;5041246;28;20037;-67
2023/09/04 06:10:03;;;;;;;18.58;15.50;;;;;;;14.46;95.97;102606.84;5031161;28;20033;-67
2023/09/04 06:12:29;;;;;;;19.10;15.77;;;;;;;14.50;95.65;102608.22;5034879;28;20021;-67
2023/09/04 06:14:54;;;;;;;21.40;15.68;;;;;;;14.55;95.81;102595.22;5035103;28;20035;-67
2023/09/04 06:17:19;;;;;;;20.02;16.05;;;;;;;14.61;95.60;102596.44;5040320;28;20037;-67
2023/09/04 06:19:44;;;;;;;18.85;16.80;;;;;;;14.61;95.41;102602.63;5033410;28;20473;-67
2023/09/04 06:22:10;;;;;;;23.45;17.35;;;;;;;14.68;95.54;102601.00;5031023;28;20024;-67
2023/09/04 06:24:35;;;;;;;20.73;16.90;;;;;;;14.76;95.30;102592.25;5034255;28;20033;-67
2023/09/04 06:27:00;;;;;;;23.52;17.52;;;;;;;14.84;95.36;102605.66;5038730;28;20516;-67
2023/09/04 06:29:25;;;;;;;24.58;17.88;;;;;;;14.93;95.10;102604.72;5035603;28;20037;-67
2023/09/04 06:31:51;;;;;;;23.35;17.92;;;;;;;15.02;94.93;102601.09;5038313;28;20034;-67
2023/09/04 06:34:16;;;;;;;23.33;17.85;;;;;;;15.08;94.42;102592.47;5047067;28;20382;-67
2023/09/04 06:36:42;;;;;;;20.65;16.77;;;;;;;15.18;94.29;102593.19;5039363;28;20036;-67
2023/09/04 06:39:07;;;;;;;23.42;18.15;;;;;;;15.27;94.36;102587.88;5045652;28;20093;-67
2023/09/04 06:41:33;;;;;;;22.27;17.25;;;;;;;15.33;94.03;102597.97;5044105;28;20033;-67
2023/09/04 06:43:58;;;;;;;22.85;16.88;;;;;;;15.35;93.61;102588.78;5040350;28;20083;-67
2023/09/04 06:46:24;;;;;;;24.15;16.80;;;;;;;15.43;93.43;102593.34;5038365;28;20037;-66
2023/09/04 06:48:50;;;;;;;20.45;16.10;;;;;;;15.48;93.21;102596.38;5039651;28;20033;-67
2023/09/04 06:51:18;;;;;;;22.90;16.60;;;;;;;15.54;93.09;102592.22;5034411;28;20033;-67
2023/09/04 06:53:43;;;;;;;20.10;17.20;;;;;;;15.61;92.92;102586.09;5039556;28;20025;-67
2023/09/04 06:56:09;;;;;;;19.65;16.48;;;;;;;15.67;92.80;102582.78;5040702;28;20087;-67
2023/09/04 06:58:34;;;;;;;22.83;16.80;;;;;;;15.72;92.41;102584.97;5042659;28;20104;-67
2023/09/04 07:01:03;;;;;;;20.02;15.85;;;;;;;15.77;92.71;102583.47;5053214;28;20021;-67
2023/09/04 07:03:29;;;;;;;19.17;16.55;;;;;;;15.81;92.15;102583.97;5039103;28;20574;-67
2023/09/04 07:05:55;;;;;;;20.42;16.45;;;;;;;15.87;92.40;102567.25;5054865;28;20025;-66
2023/09/04 07:08:20;;;;;;;24.42;17.20;;;;;;;15.95;92.39;102569.13;5048039;28;20021;-67
2023/09/04 07:10:47;;;;;;;21.35;16.15;;;;;;;15.98;92.40;102580.38;5043520;28;20029;-67
2023/09/04 07:13:13;;;;;;;17.67;15.52;;;;;;;16.03;92.14;102572.66;5043472;28;20021;-67
2023/09/04 07:15:40;;;;;;;19.40;16.27;;;;;;;16.09;92.13;102581.88;5043238;28;20087;-67
2023/09/04 07:18:06;;;;;;;20.52;16.20;;;;;;;16.14;92.11;102574.19;5038272;28;20372;-67
2023/09/04 07:20:32;;;;;;;21.67;16.58;;;;;;;16.22;92.31;102573.38;5042156;28;20075;-67
2023/09/04 07:22:57;;;;;;;22.05;16.55;;;;;;;16.30;92.08;102568.88;5038173;28;20045;-67
2023/09/04 07:25:22;;;;;;;18.45;16.45;;;;;;;16.41;92.54;102570.38;5029787;28;20075;-67
2023/09/04 07:27:48;;;;;;;20.15;16.02;;;;;;;16.47;92.27;102567.00;5046423;28;20029;-67
2023/09/04 07:30:13;;;;;;;20.33;16.38;;;;;;;16.53;92.14;102576.25;5048451;28;20017;-67
2023/09/04 07:32:38;;;;;;;19.63;16.42;;;;;;;16.64;92.17;102576.75;5049286;28;20100;-67
2023/09/04 07:35:05;;;;;;;18.23;16.10;;;;;;;16.69;92.08;102579.78;5048656;28;20043;-67
2023/09/04 07:37:30;;;;;;;20.33;16.10;;;;;;;16.76;91.44;102581.78;5042708;28;20025;-67
2023/09/04 07:39:56;;;;;;;21.20;16.02;;;;;;;16.85;91.47;102578.13;5045157;28;20111;-67
2023/09/04 07:42:22;;;;;;;22.25;15.82;;;;;;;16.95;91.43;102576.09;5044673;28;20045;-67
2023/09/04 07:44:47;;;;;;;19.80;16.25;;;;;;;17.05;91.21;102579.41;5040392;28;20414;-67
2023/09/04 07:47:12;;;;;;;20.42;15.60;;;;;;;17.13;90.88;102581.25;5033648;28;20017;-67
2023/09/04 07:49:38;;;;;;;21.15;15.02;;;;;;;17.09;90.58;102574.56;5047602;28;20021;-67
2023/09/04 07:52:03;;;;;;;16.42;14.60;;;;;;;17.24;90.62;102586.25;5030192;28;20528;-67
2023/09/04 07:54:29;;;;;;;16.60;14.88;;;;;;;17.33;90.27;102585.22;5032798;28;20032;-67
2023/09/04 07:56:54;;;;;;;20.23;15.35;;;;;;;17.42;90.35;102584.22;5047132;28;20044;-67
2023/09/04 07:59:19;;;;;;;18.00;14.90;;;;;;;17.50;90.35;102584.16;5040200;28;20017;-67
2023/09/04 08:01:45;;;;;;;17.60;14.73;;;;;;;17.56;90.15;102575.41;5045463;28;20153;-67
2023/09/04 08:04:10;;;;;;;17.85;14.55;;;;;;;17.59;89.77;102567.00;5036493;28;20028;-67
2023/09/04 08:06:36;;;;;;;16.15;14.27;;;;;;;17.67;90.04;102568.00;5047964;28;20035;-67
2023/09/04 08:09:01;;;;;;;15.88;13.95;;;;;;;17.70;89.44;102567.66;5037940;28;20491;-67
2023/09/04 08:11:26;;;;;;;17.05;14.13;;;;;;;17.73;88.95;102573.53;5042755;28;20032;-67
2023/09/04 08:13:52;;;;;;;20.98;14.43;;;;;;;17.78;88.79;102571.16;5040842;28;20021;-67
2023/09/04 08:16:17;;;;;;;17.60;13.63;;;;;;;17.82;88.25;102583.22;5043145;28;20102;-67
2023/09/04 08:18:42;;;;;;;17.42;13.75;;;;;;;17.83;87.95;102582.19;5032535;28;20060;-67
2023/09/04 08:21:08;;;;;;;16.13;13.57;;;;;;;17.88;87.50;102581.66;5042524;28;20100;-67
2023/09/04 08:23:33;;;;;;;16.15;13.48;;;;;;;17.96;87.15;102573.59;5046774;28;20028;-67
2023/09/04 08:25:59;;;;;;;15.43;12.80;;;;;;;18.02;87.16;102567.50;5039528;28;20021;-67
2023/09/04 08:28:24;;;;;;;17.92;13.68;;;;;;;18.07;87.04;102577.72;5039941;28;20033;-67
2023/09/04 08:30:50;;;;;;;16.10;12.60;;;;;;;18.12;86.70;102578.84;5045875;28;20013;-67
2023/09/04 08:33:15;;;;;;;15.15;12.60;;;;;;;18.17;86.13;102570.25;5044729;28;20031;-67
2023/09/04 08:35:40;;;;;;;16.00;13.02;;;;;;;18.25;86.13;102573.72;5036419;28;20394;-67
2023/09/04 08:38:07;;;;;;;16.00;12.52;;;;;;;18.32;85.94;102570.31;5035343;28;20024;-67
2023/09/04 08:40:32;;;;;;;15.63;13.45;;;;;;;18.40;85.55;102570.25;5051884;28;20021;-67
2023/09/04 08:42:58;;;;;;;16.98;12.50;;;;;;;18.45;85.29;102568.69;5039167;28;20017;-67
2023/09/04 08:45:23;;;;;;;18.63;13.23;;;;;;;18.52;84.95;102558.91;5040938;28;20102;-67
2023/09/04 08:47:49;;;;;;;16.58;13.40;;;;;;;18.60;84.71;102566.06;5035798;28;20028;-67
2023/09/04 08:50:16;;;;;;;16.83;13.25;;;;;;;18.69;84.67;102567.69;5031701;28;20044;-67
2023/09/04 08:52:41;;;;;;;18.40;13.10;;;;;;;18.72;84.46;102570.00;5048057;28;20028;-67
2023/09/04 08:55:08;;;;;;;16.95;13.10;;;;;;;18.83;84.24;102569.59;5032831;28;20022;-67
2023/09/04 08:57:33;;;;;;;15.80;14.00;;;;;;;18.93;84.62;102568.47;5038484;28;20055;-67
2023/09/04 09:00:00;;;;;;;19.00;13.50;;;;;;;19.01;84.26;102581.84;5043404;28;20049;-67
2023/09/04 09:02:25;;;;;;;14.60;12.52;;;;;;;19.04;83.65;102568.84;5044481;28;20497;-67
2023/09/04 09:04:52;;;;;;;15.90;12.07;;;;;;;19.12;83.28;102576.03;5044175;28;20092;-67
2023/09/04 09:07:20;;;;;;;15.13;12.23;;;;;;;19.19;83.03;102569.72;5039250;28;20113;-67
2023/09/04 09:09:50;;;;;;;13.70;12.18;;;;;;;19.23;81.95;102566.63;5017890;28;20029;-67
2023/09/04 09:12:15;;;;;;;15.30;12.90;;;;;;;19.30;81.85;102556.78;5033399;28;20437;-67
2023/09/04 09:14:41;;;;;;;14.38;12.38;;;;;;;19.38;81.11;102562.94;5041384;28;20036;-67
2023/09/04 09:17:13;;;;;;;14.77;11.52;;;;;;;19.46;80.92;102557.44;5036303;28;20376;-67
2023/09/04 09:19:38;;;;;;;14.73;12.00;;;;;;;19.61;81.25;102559.31;5042655;28;20029;-67
2023/09/04 09:22:12;;;;;;;13.90;12.05;;;;;;;19.67;80.39;102563.97;5039128;28;20023;-67
2023/09/04 09:24:52;;;;;;;15.35;12.60;;;;;;;19.78;79.87;102571.56;5044856;28;20025;-67
2023/09/04 09:27:19;;;;;;;17.33;11.95;;;;;;;19.88;79.78;102561.28;5041865;28;20021;-67
2023/09/04 09:29:46;;;;;;;15.25;11.45;;;;;;;20.04;79.37;102563.75;5031698;28;20018;-67
2023/09/04 09:32:12;;;;;;;14.77;11.50;;;;;;;20.17;78.60;102563.06;5029441;28;20431;-67
2023/09/04 09:34:38;;;;;;;14.35;10.75;;;;;;;20.36;78.24;102567.81;5031008;28;20021;-67
2023/09/04 09:37:03;;;;;;;12.50;10.80;;;;;;;20.42;78.09;102555.44;5040810;28;20049;-67
2023/09/04 09:39:31;;;;;;;15.18;10.85;;;;;;;20.58;77.41;102559.75;5044582;28;20533;-67
2023/09/04 09:41:59;;;;;;;17.88;11.15;;;;;;;20.73;77.32;102565.88;5046270;28;20045;-67
2023/09/04 09:44:31;;;;;;;14.77;10.90;;;;;;;20.87;76.25;102562.25;5041955;28;20036;-67
2023/09/04 09:46:56;;;;;;;13.90;10.82;;;;;;;21.05;75.80;102561.75;5043566;28;20260;-67
2023/09/04 09:49:22;;;;;;;11.07;9.63;;;;;;;21.24;75.53;102555.66;5030249;28;20033;-67
2023/09/04 09:51:52;;;;;;;11.63;9.65;;;;;;;21.42;74.26;102557.03;5043853;28;20021;-67
2023/09/04 09:54:33;;;;;;;12.27;9.27;;;;;;;21.58;73.56;102551.25;5040070;28;20014;-67
2023/09/04 09:56:59;;;;;;;11.73;9.60;;;;;;;21.69;72.89;102552.56;5032426;28;20542;-67
2023/09/04 09:59:27;;;;;;;14.63;9.40;;;;;;;21.89;72.80;102548.88;5043417;28;20104;-67
2023/09/04 10:01:52;;;;;;;11.38;9.27;;;;;;;22.03;72.02;102546.22;5041083;28;20112;-67
2023/09/04 10:04:18;;;;;;;11.43;8.68;;;;;;;22.09;71.36;102540.84;5036720;28;20113;-67
2023/09/04 10:06:45;;;;;;;10.27;7.70;;;;;;;22.11;70.56;102551.44;5032571;28;20052;-67
2023/09/04 10:09:13;;;;;;;9.50;7.55;;;;;;;22.33;70.41;102530.47;5037592;28;20046;-67
2023/09/04 10:11:42;;;;;;;9.65;7.53;;;;;;;22.43;69.53;102534.41;5036886;28;20037;-67
2023/09/04 10:14:14;;;;;;;8.68;7.10;;;;;;;22.52;68.33;102530.44;5038222;28;20035;-68
2023/09/04 10:16:49;;;;;;;9.00;7.40;;;;;;;22.61;67.68;102527.53;5031273;28;20589;-67
2023/09/04 10:19:17;;;;;;;12.00;7.30;;;;;;;22.71;67.61;102527.94;5035865;28;20029;-67
2023/09/04 10:21:51;;;;;;;11.40;6.57;;;;;;;22.83;67.18;102528.97;5032609;28;20186;-67
2023/09/04 10:24:24;;;;;;;8.65;6.32;;;;;;;22.89;67.27;102530.88;5034869;28;20046;-67
2023/09/04 10:27:02;;;;;;;7.78;6.20;;;;;;;22.96;66.53;102534.41;5043470;28;20033;-68
2023/09/04 10:29:31;;;;;;;8.00;6.43;;;;;;;22.88;65.03;102531.91;5032969;28;20033;-68
2023/09/04 10:31:56;;;;;;;9.57;7.13;;;;;;;23.02;64.81;102525.41;5036027;28;20021;-68
2023/09/04 10:34:22;;;;;;;7.85;6.55;;;;;;;23.09;64.81;102523.50;5034053;28;20482;-68
2023/09/04 10:36:48;;;;;;;9.10;6.35;;;;;;;23.16;64.23;102516.22;5033324;28;20026;-68
2023/09/04 10:39:13;;;;;;;6.30;5.70;;;;;;;23.31;64.68;102512.41;5035483;28;20565;-68
2023/09/04 10:41:39;;;;;;;7.45;5.97;;;;;;;23.25;63.97;102510.56;5036544;28;20032;-68
2023/09/04 10:44:05;;;;;;;8.77;5.75;;;;;;;23.40;63.63;102511.09;5035603;28;20025;-67
2023/09/04 10:46:30;;;;;;;6.63;5.68;;;;;;;23.40;63.33;102503.78;5036036;28;20029;-68
2023/09/04 10:48:55;;;;;;;7.35;5.65;;;;;;;23.42;62.92;102507.16;5036034;28;20478;-68
2023/09/04 10:51:28;;;;;;;7.28;5.43;;;;;;;23.41;62.46;102505.47;5031756;28;20083;-68
2023/09/04 10:53:55;;;;;;;8.82;5.20;;;;;;;23.38;63.18;102500.47;5035197;28;20025;-68
2023/09/04 10:56:20;;;;;;;7.45;4.68;;;;;;;23.42;63.14;102499.03;5038270;28;20029;-68
2023/09/04 10:59:06;;;;;;;5.35;4.82;;;;;;;23.64;63.33;102488.69;5044616;28;20070;-68
2023/09/04 11:01:38;;;;;;;7.30;4.50;;;;;;;23.77;61.58;102480.50;5041959;28;20026;-68
2023/09/04 11:04:08;;;;;;;8.68;4.43;;;;;;;23.81;60.25;102482.75;5042141;28;20094;-68
2023/09/04 11:06:38;;;;;;;5.15;3.60;;;;;;;23.87;59.02;102484.59;5031944;28;20446;-67
2023/09/04 11:09:04;;;;;;;6.13;3.80;;;;;;;23.93;58.96;102479.13;5039210;28;20013;-68
2023/09/04 11:11:31;;;;;;;4.28;3.60;;;;;;;23.91;59.08;102475.78;5031472;28;20140;-68